sensor_id;sensor_type;location;lat;lon;timestamp;pressure;altitude;pressure_sealevel;temperature
8227;BMP180;4154;48.810;9.012;2022-09-09T00:02:19;96779.00;;;15.40
8227;BMP180;4154;48.810;9.012;2022-09-09T00:07:49;96775.00;;;15.40
8227;BMP180;4154;48.810;9.012;2022-09-09T00:10:32;96772.00;;;15.40
8227;BMP180;4154;48.810;9.012;2022-09-09T00:19:07;96764.00;;;15.40
8227;BMP180;4154;48.810;9.012;2022-09-09T00:21:47;96771.00;;;15.30
8227;BMP180;4154;48.810;9.012;2022-09-09T00:27:16;96764.00;;;15.30
8227;BMP180;4154;48.810;9.012;2022-09-09T00:32:40;96757.00;;;15.30
8227;BMP180;4154;48.810;9.012;2022-09-09T00:35:29;96766.00;;;15.20
8227;BMP180;4154;48.810;9.012;2022-09-09T00:38:03;96758.00;;;15.20
8227;BMP180;4154;48.810;9.012;2022-09-09T00:40:45;96764.00;;;15.20
8227;BMP180;4154;48.810;9.012;2022-09-09T00:43:37;96766.00;;;15.30
8227;BMP180;4154;48.810;9.012;2022-09-09T00:46:47;96760.00;;;15.30
8227;BMP180;4154;48.810;9.012;2022-09-09T00:52:30;96772.00;;;15.40
8227;BMP180;4154;48.810;9.012;2022-09-09T00:55:20;96768.00;;;15.40
8227;BMP180;4154;48.810;9.012;2022-09-09T00:57:52;96770.00;;;15.40
8227;BMP180;4154;48.810;9.012;2022-09-09T01:00:32;96762.00;;;15.50
8227;BMP180;4154;48.810;9.012;2022-09-09T01:06:31;96759.00;;;15.50
8227;BMP180;4154;48.810;9.012;2022-09-09T01:12:42;96755.00;;;15.50
8227;BMP180;4154;48.810;9.012;2022-09-09T01:15:12;96759.00;;;15.60
8227;BMP180;4154;48.810;9.012;2022-09-09T01:18:04;96766.00;;;15.60
8227;BMP180;4154;48.810;9.012;2022-09-09T01:20:45;96766.00;;;15.60
8227;BMP180;4154;48.810;9.012;2022-09-09T01:23:38;96764.00;;;15.50
8227;BMP180;4154;48.810;9.012;2022-09-09T01:26:15;96773.00;;;15.60
8227;BMP180;4154;48.810;9.012;2022-09-09T01:28:48;96774.00;;;15.60
8227;BMP180;4154;48.810;9.012;2022-09-09T01:31:36;96786.00;;;15.60
8227;BMP180;4154;48.810;9.012;2022-09-09T01:34:13;96777.00;;;15.60
8227;BMP180;4154;48.810;9.012;2022-09-09T01:37:03;96787.00;;;15.60
8227;BMP180;4154;48.810;9.012;2022-09-09T01:39:33;96783.00;;;15.60
8227;BMP180;4154;48.810;9.012;2022-09-09T01:42:02;96787.00;;;15.60
8227;BMP180;4154;48.810;9.012;2022-09-09T01:44:30;96781.00;;;15.60
8227;BMP180;4154;48.810;9.012;2022-09-09T01:46:57;96787.00;;;15.60
8227;BMP180;4154;48.810;9.012;2022-09-09T01:49:23;96783.00;;;15.60
8227;BMP180;4154;48.810;9.012;2022-09-09T01:51:55;96786.00;;;15.60
8227;BMP180;4154;48.810;9.012;2022-09-09T01:54:24;96776.00;;;15.60
8227;BMP180;4154;48.810;9.012;2022-09-09T01:57:22;96767.00;;;15.60
8227;BMP180;4154;48.810;9.012;2022-09-09T02:00:10;96752.00;;;15.60
8227;BMP180;4154;48.810;9.012;2022-09-09T02:03:08;96768.00;;;15.50
8227;BMP180;4154;48.810;9.012;2022-09-09T02:05:47;96769.00;;;15.50
8227;BMP180;4154;48.810;9.012;2022-09-09T02:08:26;96768.00;;;15.50
8227;BMP180;4154;48.810;9.012;2022-09-09T02:13:46;96764.00;;;15.50
8227;BMP180;4154;48.810;9.012;2022-09-09T02:16:24;96767.00;;;15.40
8227;BMP180;4154;48.810;9.012;2022-09-09T02:19:21;96772.00;;;15.40
8227;BMP180;4154;48.810;9.012;2022-09-09T02:21:53;96776.00;;;15.40
8227;BMP180;4154;48.810;9.012;2022-09-09T02:24:21;96779.00;;;15.40
8227;BMP180;4154;48.810;9.012;2022-09-09T02:26:53;96781.00;;;15.30
8227;BMP180;4154;48.810;9.012;2022-09-09T02:29:26;96788.00;;;15.30
8227;BMP180;4154;48.810;9.012;2022-09-09T02:31:58;96783.00;;;15.30
8227;BMP180;4154;48.810;9.012;2022-09-09T02:34:28;96790.00;;;15.30
8227;BMP180;4154;48.810;9.012;2022-09-09T02:36:59;96788.00;;;15.30
8227;BMP180;4154;48.810;9.012;2022-09-09T02:39:26;96775.00;;;15.20
8227;BMP180;4154;48.810;9.012;2022-09-09T02:41:52;96767.00;;;15.30
8227;BMP180;4154;48.810;9.012;2022-09-09T02:44:19;96765.00;;;15.20
8227;BMP180;4154;48.810;9.012;2022-09-09T02:50:19;96755.00;;;15.20
8227;BMP180;4154;48.810;9.012;2022-09-09T02:53:12;96751.00;;;15.20
8227;BMP180;4154;48.810;9.012;2022-09-09T02:55:59;96749.00;;;15.10
8227;BMP180;4154;48.810;9.012;2022-09-09T02:58:28;96750.00;;;15.10
8227;BMP180;4154;48.810;9.012;2022-09-09T03:00:54;96741.00;;;15.10
8227;BMP180;4154;48.810;9.012;2022-09-09T03:03:22;96734.00;;;15.00
8227;BMP180;4154;48.810;9.012;2022-09-09T03:05:49;96732.00;;;15.00
8227;BMP180;4154;48.810;9.012;2022-09-09T03:08:16;96729.00;;;15.00
8227;BMP180;4154;48.810;9.012;2022-09-09T03:10:42;96723.00;;;15.00
8227;BMP180;4154;48.810;9.012;2022-09-09T03:13:09;96736.00;;;14.90
8227;BMP180;4154;48.810;9.012;2022-09-09T03:15:35;96744.00;;;14.90
8227;BMP180;4154;48.810;9.012;2022-09-09T03:18:01;96745.00;;;14.90
8227;BMP180;4154;48.810;9.012;2022-09-09T03:20:29;96732.00;;;14.90
8227;BMP180;4154;48.810;9.012;2022-09-09T03:22:57;96735.00;;;14.90
8227;BMP180;4154;48.810;9.012;2022-09-09T03:25:23;96729.00;;;14.90
8227;BMP180;4154;48.810;9.012;2022-09-09T03:27:53;96744.00;;;14.80
8227;BMP180;4154;48.810;9.012;2022-09-09T03:30:26;96743.00;;;14.80
8227;BMP180;4154;48.810;9.012;2022-09-09T03:32:52;96754.00;;;14.70
8227;BMP180;4154;48.810;9.012;2022-09-09T03:35:19;96758.00;;;14.70
8227;BMP180;4154;48.810;9.012;2022-09-09T03:37:45;96756.00;;;14.60
8227;BMP180;4154;48.810;9.012;2022-09-09T03:40:12;96759.00;;;14.60
8227;BMP180;4154;48.810;9.012;2022-09-09T03:42:39;96762.00;;;14.50
8227;BMP180;4154;48.810;9.012;2022-09-09T03:45:08;96761.00;;;14.60
8227;BMP180;4154;48.810;9.012;2022-09-09T03:47:34;96757.00;;;14.50
8227;BMP180;4154;48.810;9.012;2022-09-09T03:50:01;96759.00;;;14.50
8227;BMP180;4154;48.810;9.012;2022-09-09T03:52:26;96761.00;;;14.50
8227;BMP180;4154;48.810;9.012;2022-09-09T03:54:53;96750.00;;;14.50
8227;BMP180;4154;48.810;9.012;2022-09-09T03:57:20;96754.00;;;14.50
8227;BMP180;4154;48.810;9.012;2022-09-09T03:59:47;96756.00;;;14.50
8227;BMP180;4154;48.810;9.012;2022-09-09T04:02:13;96756.00;;;14.50
8227;BMP180;4154;48.810;9.012;2022-09-09T04:04:39;96750.00;;;14.50
8227;BMP180;4154;48.810;9.012;2022-09-09T04:07:05;96753.00;;;14.50
8227;BMP180;4154;48.810;9.012;2022-09-09T04:09:33;96757.00;;;14.60
8227;BMP180;4154;48.810;9.012;2022-09-09T04:12:00;96755.00;;;14.60
8227;BMP180;4154;48.810;9.012;2022-09-09T04:14:26;96763.00;;;14.60
8227;BMP180;4154;48.810;9.012;2022-09-09T04:16:54;96765.00;;;14.60
8227;BMP180;4154;48.810;9.012;2022-09-09T04:19:22;96763.00;;;14.60
8227;BMP180;4154;48.810;9.012;2022-09-09T04:21:48;96759.00;;;14.60
8227;BMP180;4154;48.810;9.012;2022-09-09T04:24:16;96769.00;;;14.60
8227;BMP180;4154;48.810;9.012;2022-09-09T04:26:42;96765.00;;;14.70
8227;BMP180;4154;48.810;9.012;2022-09-09T04:29:08;96767.00;;;14.70
8227;BMP180;4154;48.810;9.012;2022-09-09T04:31:34;96761.00;;;14.70
8227;BMP180;4154;48.810;9.012;2022-09-09T04:34:00;96755.00;;;14.70
8227;BMP180;4154;48.810;9.012;2022-09-09T04:36:32;96766.00;;;14.80
8227;BMP180;4154;48.810;9.012;2022-09-09T04:38:58;96765.00;;;14.80
8227;BMP180;4154;48.810;9.012;2022-09-09T04:41:24;96768.00;;;14.80
8227;BMP180;4154;48.810;9.012;2022-09-09T04:43:50;96772.00;;;14.80
8227;BMP180;4154;48.810;9.012;2022-09-09T04:46:20;96766.00;;;14.80
8227;BMP180;4154;48.810;9.012;2022-09-09T04:48:46;96769.00;;;14.80
8227;BMP180;4154;48.810;9.012;2022-09-09T04:51:14;96768.00;;;14.80
8227;BMP180;4154;48.810;9.012;2022-09-09T04:53:40;96775.00;;;14.80
8227;BMP180;4154;48.810;9.012;2022-09-09T04:56:10;96773.00;;;14.90
8227;BMP180;4154;48.810;9.012;2022-09-09T04:58:37;96779.00;;;14.90
8227;BMP180;4154;48.810;9.012;2022-09-09T05:01:12;96767.00;;;14.90
8227;BMP180;4154;48.810;9.012;2022-09-09T05:03:38;96784.00;;;14.90
8227;BMP180;4154;48.810;9.012;2022-09-09T05:06:17;96793.00;;;14.90
8227;BMP180;4154;48.810;9.012;2022-09-09T05:08:44;96785.00;;;14.90
8227;BMP180;4154;48.810;9.012;2022-09-09T05:11:31;96797.00;;;14.90
8227;BMP180;4154;48.810;9.012;2022-09-09T05:13:57;96802.00;;;14.90
8227;BMP180;4154;48.810;9.012;2022-09-09T05:16:26;96791.00;;;14.90
8227;BMP180;4154;48.810;9.012;2022-09-09T05:18:52;96791.00;;;14.90
8227;BMP180;4154;48.810;9.012;2022-09-09T05:21:21;96788.00;;;15.00
8227;BMP180;4154;48.810;9.012;2022-09-09T05:23:49;96786.00;;;15.00
8227;BMP180;4154;48.810;9.012;2022-09-09T05:26:19;96792.00;;;15.00
8227;BMP180;4154;48.810;9.012;2022-09-09T05:28:47;96789.00;;;15.00
8227;BMP180;4154;48.810;9.012;2022-09-09T05:31:16;96800.00;;;15.00
8227;BMP180;4154;48.810;9.012;2022-09-09T05:33:45;96800.00;;;15.00
8227;BMP180;4154;48.810;9.012;2022-09-09T05:36:16;96794.00;;;15.00
8227;BMP180;4154;48.810;9.012;2022-09-09T05:38:43;96804.00;;;15.00
8227;BMP180;4154;48.810;9.012;2022-09-09T05:41:10;96803.00;;;15.00
8227;BMP180;4154;48.810;9.012;2022-09-09T05:43:37;96802.00;;;15.00
8227;BMP180;4154;48.810;9.012;2022-09-09T05:46:09;96802.00;;;15.00
8227;BMP180;4154;48.810;9.012;2022-09-09T05:48:44;96805.00;;;15.00
8227;BMP180;4154;48.810;9.012;2022-09-09T05:51:15;96810.00;;;15.00
8227;BMP180;4154;48.810;9.012;2022-09-09T05:53:45;96796.00;;;15.10
8227;BMP180;4154;48.810;9.012;2022-09-09T05:56:24;96808.00;;;15.10
8227;BMP180;4154;48.810;9.012;2022-09-09T05:58:55;96807.00;;;15.10
8227;BMP180;4154;48.810;9.012;2022-09-09T06:01:35;96814.00;;;15.20
8227;BMP180;4154;48.810;9.012;2022-09-09T06:04:02;96806.00;;;15.20
8227;BMP180;4154;48.810;9.012;2022-09-09T06:06:33;96811.00;;;15.20
8227;BMP180;4154;48.810;9.012;2022-09-09T06:09:04;96815.00;;;15.20
8227;BMP180;4154;48.810;9.012;2022-09-09T06:11:37;96806.00;;;15.30
8227;BMP180;4154;48.810;9.012;2022-09-09T06:14:05;96811.00;;;15.30
8227;BMP180;4154;48.810;9.012;2022-09-09T06:16:32;96810.00;;;15.30
8227;BMP180;4154;48.810;9.012;2022-09-09T06:18:59;96816.00;;;15.30
8227;BMP180;4154;48.810;9.012;2022-09-09T06:21:27;96815.00;;;15.40
8227;BMP180;4154;48.810;9.012;2022-09-09T06:23:53;96814.00;;;15.40
8227;BMP180;4154;48.810;9.012;2022-09-09T06:26:24;96810.00;;;15.40
8227;BMP180;4154;48.810;9.012;2022-09-09T06:28:54;96820.00;;;15.40
8227;BMP180;4154;48.810;9.012;2022-09-09T06:31:23;96821.00;;;15.40
8227;BMP180;4154;48.810;9.012;2022-09-09T06:33:51;96817.00;;;15.50
8227;BMP180;4154;48.810;9.012;2022-09-09T06:36:25;96823.00;;;15.50
8227;BMP180;4154;48.810;9.012;2022-09-09T06:38:52;96818.00;;;15.50
8227;BMP180;4154;48.810;9.012;2022-09-09T06:41:20;96822.00;;;15.50
8227;BMP180;4154;48.810;9.012;2022-09-09T06:43:47;96817.00;;;15.50
8227;BMP180;4154;48.810;9.012;2022-09-09T06:46:17;96824.00;;;15.60
8227;BMP180;4154;48.810;9.012;2022-09-09T06:48:45;96831.00;;;15.60
8227;BMP180;4154;48.810;9.012;2022-09-09T06:51:20;96824.00;;;15.60
8227;BMP180;4154;48.810;9.012;2022-09-09T06:53:50;96829.00;;;15.70
8227;BMP180;4154;48.810;9.012;2022-09-09T06:56:23;96821.00;;;15.70
8227;BMP180;4154;48.810;9.012;2022-09-09T06:58:51;96829.00;;;15.70
8227;BMP180;4154;48.810;9.012;2022-09-09T07:01:29;96833.00;;;15.80
8227;BMP180;4154;48.810;9.012;2022-09-09T07:03:57;96830.00;;;15.80
8227;BMP180;4154;48.810;9.012;2022-09-09T07:06:33;96821.00;;;15.80
8227;BMP180;4154;48.810;9.012;2022-09-09T07:09:09;96824.00;;;15.90
8227;BMP180;4154;48.810;9.012;2022-09-09T07:11:48;96825.00;;;15.90
8227;BMP180;4154;48.810;9.012;2022-09-09T07:14:15;96822.00;;;15.90
8227;BMP180;4154;48.810;9.012;2022-09-09T07:16:42;96828.00;;;16.00
8227;BMP180;4154;48.810;9.012;2022-09-09T07:19:10;96831.00;;;16.10
8227;BMP180;4154;48.810;9.012;2022-09-09T07:21:36;96840.00;;;16.10
8227;BMP180;4154;48.810;9.012;2022-09-09T07:24:02;96833.00;;;16.10
8227;BMP180;4154;48.810;9.012;2022-09-09T07:26:30;96827.00;;;16.20
8227;BMP180;4154;48.810;9.012;2022-09-09T07:28:56;96825.00;;;16.30
8227;BMP180;4154;48.810;9.012;2022-09-09T07:31:31;96825.00;;;16.30
8227;BMP180;4154;48.810;9.012;2022-09-09T07:33:59;96828.00;;;16.30
8227;BMP180;4154;48.810;9.012;2022-09-09T07:36:34;96823.00;;;16.40
8227;BMP180;4154;48.810;9.012;2022-09-09T07:39:05;96826.00;;;16.40
8227;BMP180;4154;48.810;9.012;2022-09-09T07:41:38;96837.00;;;16.50
8227;BMP180;4154;48.810;9.012;2022-09-09T07:44:17;96827.00;;;16.50
8227;BMP180;4154;48.810;9.012;2022-09-09T07:46:44;96840.00;;;16.50
8227;BMP180;4154;48.810;9.012;2022-09-09T07:49:11;96831.00;;;16.50
8227;BMP180;4154;48.810;9.012;2022-09-09T07:51:41;96829.00;;;16.60
8227;BMP180;4154;48.810;9.012;2022-09-09T07:54:11;96820.00;;;16.70
8227;BMP180;4154;48.810;9.012;2022-09-09T07:56:39;96825.00;;;16.70
8227;BMP180;4154;48.810;9.012;2022-09-09T07:59:05;96828.00;;;16.80
8227;BMP180;4154;48.810;9.012;2022-09-09T08:01:44;96818.00;;;16.80
8227;BMP180;4154;48.810;9.012;2022-09-09T08:04:14;96814.00;;;16.90
8227;BMP180;4154;48.810;9.012;2022-09-09T08:06:47;96828.00;;;16.90
8227;BMP180;4154;48.810;9.012;2022-09-09T08:09:14;96822.00;;;17.00
8227;BMP180;4154;48.810;9.012;2022-09-09T08:11:42;96837.00;;;17.00
8227;BMP180;4154;48.810;9.012;2022-09-09T08:14:11;96827.00;;;17.10
8227;BMP180;4154;48.810;9.012;2022-09-09T08:16:46;96850.00;;;17.20
8227;BMP180;4154;48.810;9.012;2022-09-09T08:19:13;96858.00;;;17.30
8227;BMP180;4154;48.810;9.012;2022-09-09T08:21:41;96850.00;;;17.30
8227;BMP180;4154;48.810;9.012;2022-09-09T08:24:09;96846.00;;;17.40
8227;BMP180;4154;48.810;9.012;2022-09-09T08:26:45;96850.00;;;17.50
8227;BMP180;4154;48.810;9.012;2022-09-09T08:29:13;96844.00;;;17.60
8227;BMP180;4154;48.810;9.012;2022-09-09T08:31:54;96833.00;;;17.60
8227;BMP180;4154;48.810;9.012;2022-09-09T08:34:21;96822.00;;;17.60
8227;BMP180;4154;48.810;9.012;2022-09-09T08:36:49;96825.00;;;17.70
8227;BMP180;4154;48.810;9.012;2022-09-09T08:39:18;96831.00;;;17.80
8227;BMP180;4154;48.810;9.012;2022-09-09T08:47:25;96831.00;;;18.10
8227;BMP180;4154;48.810;9.012;2022-09-09T08:50:35;96834.00;;;18.20
8227;BMP180;4154;48.810;9.012;2022-09-09T08:55:58;96840.00;;;18.20
8227;BMP180;4154;48.810;9.012;2022-09-09T08:58:31;96838.00;;;18.30
8227;BMP180;4154;48.810;9.012;2022-09-09T09:04:38;96850.00;;;18.40
8227;BMP180;4154;48.810;9.012;2022-09-09T09:10:30;96848.00;;;18.40
8227;BMP180;4154;48.810;9.012;2022-09-09T09:13:02;96849.00;;;18.40
8227;BMP180;4154;48.810;9.012;2022-09-09T09:15:37;96838.00;;;18.50
8227;BMP180;4154;48.810;9.012;2022-09-09T09:18:05;96835.00;;;18.50
8227;BMP180;4154;48.810;9.012;2022-09-09T09:23:54;96836.00;;;18.60
8227;BMP180;4154;48.810;9.012;2022-09-09T09:26:26;96842.00;;;18.70
8227;BMP180;4154;48.810;9.012;2022-09-09T09:28:58;96842.00;;;18.70
8227;BMP180;4154;48.810;9.012;2022-09-09T09:31:25;96852.00;;;18.80
8227;BMP180;4154;48.810;9.012;2022-09-09T09:33:56;96833.00;;;18.90
8227;BMP180;4154;48.810;9.012;2022-09-09T09:36:41;96835.00;;;19.00
8227;BMP180;4154;48.810;9.012;2022-09-09T09:39:08;96835.00;;;19.00
8227;BMP180;4154;48.810;9.012;2022-09-09T09:41:42;96835.00;;;19.10
8227;BMP180;4154;48.810;9.012;2022-09-09T09:44:31;96839.00;;;19.10
8227;BMP180;4154;48.810;9.012;2022-09-09T09:47:12;96838.00;;;19.00
8227;BMP180;4154;48.810;9.012;2022-09-09T09:49:39;96823.00;;;19.10
8227;BMP180;4154;48.810;9.012;2022-09-09T09:52:21;96822.00;;;19.20
8227;BMP180;4154;48.810;9.012;2022-09-09T09:54:48;96813.00;;;19.20
8227;BMP180;4154;48.810;9.012;2022-09-09T09:57:17;96808.00;;;19.20
8227;BMP180;4154;48.810;9.012;2022-09-09T09:59:45;96814.00;;;19.30
8227;BMP180;4154;48.810;9.012;2022-09-09T10:04:43;96810.00;;;19.40
8227;BMP180;4154;48.810;9.012;2022-09-09T10:07:19;96807.00;;;19.40
8227;BMP180;4154;48.810;9.012;2022-09-09T10:09:53;96804.00;;;19.40
8227;BMP180;4154;48.810;9.012;2022-09-09T10:18:33;96806.00;;;19.70
8227;BMP180;4154;48.810;9.012;2022-09-09T10:24:13;96804.00;;;19.70
8227;BMP180;4154;48.810;9.012;2022-09-09T10:26:48;96809.00;;;19.80
8227;BMP180;4154;48.810;9.012;2022-09-09T10:29:56;96806.00;;;19.80
8227;BMP180;4154;48.810;9.012;2022-09-09T10:35:25;96805.00;;;19.80
8227;BMP180;4154;48.810;9.012;2022-09-09T10:44:15;96830.00;;;19.60
8227;BMP180;4154;48.810;9.012;2022-09-09T10:53:18;96853.00;;;19.00
8227;BMP180;4154;48.810;9.012;2022-09-09T10:55:59;96858.00;;;18.80
8227;BMP180;4154;48.810;9.012;2022-09-09T10:59:02;96861.00;;;18.60
8227;BMP180;4154;48.810;9.012;2022-09-09T11:01:53;96858.00;;;18.30
8227;BMP180;4154;48.810;9.012;2022-09-09T11:04:42;96867.00;;;18.20
8227;BMP180;4154;48.810;9.012;2022-09-09T11:07:25;96856.00;;;17.90
8227;BMP180;4154;48.810;9.012;2022-09-09T11:10:03;96862.00;;;17.70
8227;BMP180;4154;48.810;9.012;2022-09-09T11:12:37;96868.00;;;17.40
8227;BMP180;4154;48.810;9.012;2022-09-09T11:15:16;96871.00;;;17.30
8227;BMP180;4154;48.810;9.012;2022-09-09T11:17:56;96878.00;;;17.20
8227;BMP180;4154;48.810;9.012;2022-09-09T11:20:25;96882.00;;;17.10
8227;BMP180;4154;48.810;9.012;2022-09-09T11:23:12;96883.00;;;17.10
8227;BMP180;4154;48.810;9.012;2022-09-09T11:25:49;96891.00;;;17.10
8227;BMP180;4154;48.810;9.012;2022-09-09T11:37:59;96871.00;;;16.80
8227;BMP180;4154;48.810;9.012;2022-09-09T11:40:30;96867.00;;;16.80
8227;BMP180;4154;48.810;9.012;2022-09-09T11:43:22;96857.00;;;16.70
8227;BMP180;4154;48.810;9.012;2022-09-09T11:46:02;96856.00;;;16.70
8227;BMP180;4154;48.810;9.012;2022-09-09T11:48:40;96853.00;;;16.70
8227;BMP180;4154;48.810;9.012;2022-09-09T11:53:59;96841.00;;;16.80
8227;BMP180;4154;48.810;9.012;2022-09-09T11:56:45;96822.00;;;16.80
8227;BMP180;4154;48.810;9.012;2022-09-09T11:59:29;96843.00;;;16.90
8227;BMP180;4154;48.810;9.012;2022-09-09T12:02:12;96843.00;;;17.00
8227;BMP180;4154;48.810;9.012;2022-09-09T12:04:57;96842.00;;;17.10
8227;BMP180;4154;48.810;9.012;2022-09-09T12:07:38;96838.00;;;17.30
8227;BMP180;4154;48.810;9.012;2022-09-09T12:12:37;96828.00;;;17.60
8227;BMP180;4154;48.810;9.012;2022-09-09T12:15:27;96824.00;;;17.80
8227;BMP180;4154;48.810;9.012;2022-09-09T12:17:57;96823.00;;;17.90
8227;BMP180;4154;48.810;9.012;2022-09-09T12:20:31;96830.00;;;18.10
8227;BMP180;4154;48.810;9.012;2022-09-09T12:23:49;96828.00;;;18.30
8227;BMP180;4154;48.810;9.012;2022-09-09T12:32:10;96827.00;;;18.50
8227;BMP180;4154;48.810;9.012;2022-09-09T12:34:55;96827.00;;;18.60
8227;BMP180;4154;48.810;9.012;2022-09-09T12:40:24;96816.00;;;18.70
8227;BMP180;4154;48.810;9.012;2022-09-09T12:42:50;96812.00;;;18.70
8227;BMP180;4154;48.810;9.012;2022-09-09T12:45:19;96799.00;;;18.80
8227;BMP180;4154;48.810;9.012;2022-09-09T12:48:06;96804.00;;;18.80
8227;BMP180;4154;48.810;9.012;2022-09-09T12:50:38;96805.00;;;18.90
8227;BMP180;4154;48.810;9.012;2022-09-09T12:53:16;96803.00;;;18.90
8227;BMP180;4154;48.810;9.012;2022-09-09T12:55:52;96796.00;;;19.00
8227;BMP180;4154;48.810;9.012;2022-09-09T12:58:20;96796.00;;;18.90
8227;BMP180;4154;48.810;9.012;2022-09-09T13:00:54;96791.00;;;18.90
8227;BMP180;4154;48.810;9.012;2022-09-09T13:03:23;96794.00;;;19.00
8227;BMP180;4154;48.810;9.012;2022-09-09T13:05:51;96793.00;;;19.10
8227;BMP180;4154;48.810;9.012;2022-09-09T13:08:19;96784.00;;;19.30
8227;BMP180;4154;48.810;9.012;2022-09-09T13:10:57;96777.00;;;19.30
8227;BMP180;4154;48.810;9.012;2022-09-09T13:16:00;96771.00;;;19.50
8227;BMP180;4154;48.810;9.012;2022-09-09T13:18:45;96779.00;;;19.60
8227;BMP180;4154;48.810;9.012;2022-09-09T13:21:12;96770.00;;;19.70
8227;BMP180;4154;48.810;9.012;2022-09-09T13:23:38;96772.00;;;19.70
8227;BMP180;4154;48.810;9.012;2022-09-09T13:26:20;96761.00;;;19.70
8227;BMP180;4154;48.810;9.012;2022-09-09T13:28:49;96764.00;;;19.90
8227;BMP180;4154;48.810;9.012;2022-09-09T13:31:28;96765.00;;;20.00
8227;BMP180;4154;48.810;9.012;2022-09-09T13:33:54;96760.00;;;20.00
8227;BMP180;4154;48.810;9.012;2022-09-09T13:36:33;96757.00;;;20.10
8227;BMP180;4154;48.810;9.012;2022-09-09T13:39:03;96752.00;;;20.20
8227;BMP180;4154;48.810;9.012;2022-09-09T13:41:42;96746.00;;;20.20
8227;BMP180;4154;48.810;9.012;2022-09-09T13:44:27;96759.00;;;20.20
8227;BMP180;4154;48.810;9.012;2022-09-09T13:47:06;96752.00;;;20.10
8227;BMP180;4154;48.810;9.012;2022-09-09T13:49:42;96748.00;;;20.00
8227;BMP180;4154;48.810;9.012;2022-09-09T13:52:14;96747.00;;;20.10
8227;BMP180;4154;48.810;9.012;2022-09-09T13:54:41;96757.00;;;20.20
8227;BMP180;4154;48.810;9.012;2022-09-09T13:57:34;96750.00;;;20.20
8227;BMP180;4154;48.810;9.012;2022-09-09T13:59:59;96736.00;;;20.20
8227;BMP180;4154;48.810;9.012;2022-09-09T14:02:26;96735.00;;;20.20
8227;BMP180;4154;48.810;9.012;2022-09-09T14:04:52;96742.00;;;20.40
8227;BMP180;4154;48.810;9.012;2022-09-09T14:07:21;96741.00;;;20.50
8227;BMP180;4154;48.810;9.012;2022-09-09T14:09:47;96739.00;;;20.60
8227;BMP180;4154;48.810;9.012;2022-09-09T14:12:17;96742.00;;;20.70
8227;BMP180;4154;48.810;9.012;2022-09-09T14:14:44;96734.00;;;20.70
8227;BMP180;4154;48.810;9.012;2022-09-09T14:17:10;96739.00;;;20.70
8227;BMP180;4154;48.810;9.012;2022-09-09T14:19:36;96723.00;;;20.80
8227;BMP180;4154;48.810;9.012;2022-09-09T14:22:03;96726.00;;;20.80
8227;BMP180;4154;48.810;9.012;2022-09-09T14:24:29;96734.00;;;20.70
8227;BMP180;4154;48.810;9.012;2022-09-09T14:26:55;96730.00;;;20.70
8227;BMP180;4154;48.810;9.012;2022-09-09T14:29:21;96731.00;;;20.60
8227;BMP180;4154;48.810;9.012;2022-09-09T14:31:47;96723.00;;;20.50
8227;BMP180;4154;48.810;9.012;2022-09-09T14:34:13;96731.00;;;20.60
8227;BMP180;4154;48.810;9.012;2022-09-09T14:36:40;96732.00;;;20.70
8227;BMP180;4154;48.810;9.012;2022-09-09T14:39:07;96736.00;;;20.80
8227;BMP180;4154;48.810;9.012;2022-09-09T14:41:33;96734.00;;;20.90
8227;BMP180;4154;48.810;9.012;2022-09-09T14:43:59;96740.00;;;21.00
8227;BMP180;4154;48.810;9.012;2022-09-09T14:46:25;96751.00;;;20.90
8227;BMP180;4154;48.810;9.012;2022-09-09T14:48:52;96749.00;;;21.00
8227;BMP180;4154;48.810;9.012;2022-09-09T14:51:22;96757.00;;;21.00
8227;BMP180;4154;48.810;9.012;2022-09-09T14:53:51;96758.00;;;20.90
8227;BMP180;4154;48.810;9.012;2022-09-09T14:56:20;96754.00;;;20.80
8227;BMP180;4154;48.810;9.012;2022-09-09T14:58:47;96759.00;;;20.70
8227;BMP180;4154;48.810;9.012;2022-09-09T15:01:19;96772.00;;;20.60
8227;BMP180;4154;48.810;9.012;2022-09-09T15:03:58;96762.00;;;20.50
8227;BMP180;4154;48.810;9.012;2022-09-09T15:06:26;96761.00;;;20.40
8227;BMP180;4154;48.810;9.012;2022-09-09T15:08:53;96766.00;;;20.30
8227;BMP180;4154;48.810;9.012;2022-09-09T15:11:20;96766.00;;;20.20
8227;BMP180;4154;48.810;9.012;2022-09-09T15:13:51;96765.00;;;20.20
8227;BMP180;4154;48.810;9.012;2022-09-09T15:16:20;96760.00;;;20.20
8227;BMP180;4154;48.810;9.012;2022-09-09T15:18:49;96767.00;;;20.10
8227;BMP180;4154;48.810;9.012;2022-09-09T15:21:18;96753.00;;;20.00
8227;BMP180;4154;48.810;9.012;2022-09-09T15:23:45;96757.00;;;20.00
8227;BMP180;4154;48.810;9.012;2022-09-09T15:26:11;96746.00;;;20.10
8227;BMP180;4154;48.810;9.012;2022-09-09T15:28:40;96752.00;;;20.10
8227;BMP180;4154;48.810;9.012;2022-09-09T15:31:21;96760.00;;;20.10
8227;BMP180;4154;48.810;9.012;2022-09-09T15:33:58;96755.00;;;20.10
8227;BMP180;4154;48.810;9.012;2022-09-09T15:39:02;96772.00;;;20.00
8227;BMP180;4154;48.810;9.012;2022-09-09T15:41:29;96772.00;;;19.90
8227;BMP180;4154;48.810;9.012;2022-09-09T15:43:57;96772.00;;;19.90
8227;BMP180;4154;48.810;9.012;2022-09-09T15:46:37;96781.00;;;19.80
8227;BMP180;4154;48.810;9.012;2022-09-09T15:49:12;96771.00;;;19.80
8227;BMP180;4154;48.810;9.012;2022-09-09T15:51:42;96779.00;;;19.80
8227;BMP180;4154;48.810;9.012;2022-09-09T15:54:12;96783.00;;;19.80
8227;BMP180;4154;48.810;9.012;2022-09-09T15:56:39;96779.00;;;19.70
8227;BMP180;4154;48.810;9.012;2022-09-09T15:59:05;96778.00;;;19.70
8227;BMP180;4154;48.810;9.012;2022-09-09T16:01:32;96774.00;;;19.60
8227;BMP180;4154;48.810;9.012;2022-09-09T16:03:58;96786.00;;;19.60
8227;BMP180;4154;48.810;9.012;2022-09-09T16:06:27;96794.00;;;19.60
8227;BMP180;4154;48.810;9.012;2022-09-09T16:08:55;96804.00;;;19.60
8227;BMP180;4154;48.810;9.012;2022-09-09T16:11:41;96806.00;;;19.60
8227;BMP180;4154;48.810;9.012;2022-09-09T16:14:07;96816.00;;;19.60
8227;BMP180;4154;48.810;9.012;2022-09-09T16:16:33;96828.00;;;19.60
8227;BMP180;4154;48.810;9.012;2022-09-09T16:19:08;96827.00;;;19.50
8227;BMP180;4154;48.810;9.012;2022-09-09T16:21:39;96840.00;;;19.40
8227;BMP180;4154;48.810;9.012;2022-09-09T16:24:08;96828.00;;;19.20
8227;BMP180;4154;48.810;9.012;2022-09-09T16:26:37;96833.00;;;18.90
8227;BMP180;4154;48.810;9.012;2022-09-09T16:29:04;96838.00;;;18.80
8227;BMP180;4154;48.810;9.012;2022-09-09T16:31:31;96841.00;;;18.70
8227;BMP180;4154;48.810;9.012;2022-09-09T16:34:00;96846.00;;;18.60
8227;BMP180;4154;48.810;9.012;2022-09-09T16:36:28;96839.00;;;18.50
8227;BMP180;4154;48.810;9.012;2022-09-09T16:39:04;96840.00;;;18.50
8227;BMP180;4154;48.810;9.012;2022-09-09T16:41:31;96845.00;;;18.40
8227;BMP180;4154;48.810;9.012;2022-09-09T16:44:05;96851.00;;;18.40
8227;BMP180;4154;48.810;9.012;2022-09-09T16:46:34;96848.00;;;18.30
8227;BMP180;4154;48.810;9.012;2022-09-09T16:49:05;96851.00;;;18.30
8227;BMP180;4154;48.810;9.012;2022-09-09T16:51:35;96854.00;;;18.20